Time;durP1;ratioP1;P1;durP2;ratioP2;P2;SDS_P1;SDS_P2;PMS_P1;PMS_P2;Temp;Humidity;BMP_temperature;BMP_pressure;BME280_temperature;BME280_humidity;BME280_pressure;Samples;Min_cycle;Max_cycle;Signal;HPM_P1;HPM_P2
2021/01/13 00:00:32;;;;;;;25.05;18.52;;;;;;;2.06;73.64;100660.18;1691091;84;21206;-45
2021/01/13 00:03:01;;;;;;;30.23;18.98;;;;;;;2.03;73.70;100647.30;1682987;84;21174;-45
2021/01/13 00:05:29;;;;;;;27.40;19.12;;;;;;;1.99;73.72;100642.98;1694076;84;21357;-45
2021/01/13 00:07:57;;;;;;;28.90;19.32;;;;;;;2.03;73.61;100655.00;1701747;84;21275;-45
2021/01/13 00:10:27;;;;;;;27.45;19.80;;;;;;;2.06;73.68;100662.75;1693936;84;21614;-45
2021/01/13 00:12:55;;;;;;;25.95;20.02;;;;;;;2.06;73.61;100662.30;1697769;84;21337;-46
2021/01/13 00:15:24;;;;;;;28.67;20.45;;;;;;;2.05;73.57;100661.01;1693006;84;21210;-45
2021/01/13 00:17:52;;;;;;;27.40;19.90;;;;;;;2.05;73.52;100673.42;1693015;84;21162;-46
2021/01/13 00:20:21;;;;;;;29.72;21.00;;;;;;;2.06;73.47;100688.41;1690516;84;21163;-46
2021/01/13 00:22:49;;;;;;;33.83;23.05;;;;;;;2.07;73.52;100682.41;1689552;84;21324;-45
2021/01/13 00:25:18;;;;;;;32.88;24.35;;;;;;;2.08;73.54;100671.33;1688254;84;21183;-45
2021/01/13 00:27:46;;;;;;;34.83;25.00;;;;;;;2.07;73.20;100651.62;1686489;84;21341;-45
2021/01/13 00:30:17;;;;;;;36.03;24.47;;;;;;;2.01;72.87;100650.27;1686637;84;21166;-45
2021/01/13 00:32:46;;;;;;;36.00;24.30;;;;;;;1.96;73.00;100649.38;1672338;85;21180;-45
2021/01/13 00:35:15;;;;;;;32.83;23.73;;;;;;;1.91;73.41;100645.88;1686148;83;21179;-46
2021/01/13 00:37:45;;;;;;;34.90;23.20;;;;;;;1.88;73.41;100637.73;1694715;84;21203;-45
2021/01/13 00:40:14;;;;;;;30.48;20.50;;;;;;;1.88;73.48;100643.27;1710071;84;21231;-45
2021/01/13 00:42:47;;;;;;;29.15;20.70;;;;;;;1.85;73.45;100645.41;1708340;84;21207;-45
2021/01/13 00:45:21;;;;;;;28.30;19.82;;;;;;;1.88;73.60;100636.86;1810906;79;23139;-45
2021/01/13 00:47:50;;;;;;;24.80;18.75;;;;;;;1.83;73.65;100626.98;1789318;80;21148;-45
2021/01/13 00:50:19;;;;;;;29.23;19.85;;;;;;;1.83;73.59;100616.72;1779815;80;21136;-45
2021/01/13 00:52:48;;;;;;;22.07;17.10;;;;;;;1.84;73.41;100620.58;1720938;83;21733;-45
2021/01/13 00:55:16;;;;;;;24.12;17.40;;;;;;;1.82;73.44;100614.98;1744138;81;21156;-45
2021/01/13 00:57:52;;;;;;;26.27;18.05;;;;;;;1.80;73.49;100611.13;1725402;83;21136;-45
2021/01/13 01:00:21;;;;;;;24.43;17.25;;;;;;;1.76;73.40;100607.22;1750375;81;21188;-45
2021/01/13 01:02:51;;;;;;;25.40;17.98;;;;;;;1.73;73.43;100602.08;1720196;83;21183;-45
2021/01/13 01:05:21;;;;;;;24.45;16.25;;;;;;;1.72;73.69;100597.77;1739053;82;21176;-45
2021/01/13 01:07:49;;;;;;;22.80;16.60;;;;;;;1.64;74.12;100607.53;1744040;81;21157;-45
2021/01/13 01:10:20;;;;;;;23.20;16.75;;;;;;;1.71;74.05;100596.06;1725465;82;21156;-45
2021/01/13 01:12:48;;;;;;;22.45;16.52;;;;;;;1.72;73.74;100577.25;1744089;81;21156;-45
2021/01/13 01:15:16;;;;;;;23.07;17.12;;;;;;;1.72;73.90;100581.09;1725228;83;21174;-44
2021/01/13 01:17:45;;;;;;;25.02;18.25;;;;;;;1.70;73.80;100576.37;1746291;81;21707;-46
2021/01/13 01:20:15;;;;;;;22.20;16.02;;;;;;;1.70;73.78;100566.11;1725790;82;21194;-45
2021/01/13 01:22:59;;;;;;;22.73;16.67;;;;;;;1.67;73.81;100544.30;1737612;82;21587;-45
2021/01/13 01:25:30;;;;;;;23.57;16.57;;;;;;;1.67;73.89;100528.91;1737385;82;21192;-45
2021/01/13 01:28:00;;;;;;;19.92;15.90;;;;;;;1.64;74.02;100522.91;1737511;82;21160;-45
2021/01/13 01:30:29;;;;;;;21.50;16.10;;;;;;;1.64;74.02;100528.03;1738397;82;21163;-45
2021/01/13 01:32:59;;;;;;;23.22;16.90;;;;;;;1.63;73.98;100544.25;1752563;81;21121;-45
2021/01/13 01:35:27;;;;;;;21.30;16.17;;;;;;;1.61;74.06;100556.20;1728730;81;21184;-45
2021/01/13 01:37:56;;;;;;;22.55;16.73;;;;;;;1.58;74.20;100548.48;1710771;82;21194;-44
2021/01/13 01:40:25;;;;;;;23.57;16.62;;;;;;;1.58;74.22;100552.33;1725418;83;21292;-45
2021/01/13 01:42:54;;;;;;;22.17;16.32;;;;;;;1.57;74.41;100572.39;1726169;83;21158;-47
2021/01/13 01:45:27;;;;;;;24.12;16.37;;;;;;;1.58;74.37;100576.70;1711812;83;21574;-44
2021/01/13 01:48:15;;;;;;;26.07;17.48;;;;;;;1.57;74.56;100569.83;1767762;81;21137;-45
2021/01/13 01:50:45;;;;;;;20.97;15.68;;;;;;;1.58;74.58;100570.28;1762675;81;21619;-44
2021/01/13 01:53:33;;;;;;;21.30;15.23;;;;;;;1.60;74.60;100575.01;1772625;81;21153;-44
2021/01/13 01:56:13;;;;;;;24.27;16.70;;;;;;;1.59;74.55;100583.53;1770654;81;21109;-45
2021/01/13 01:58:41;;;;;;;23.87;17.20;;;;;;;1.58;74.66;100572.84;1774710;81;21165;-44
2021/01/13 02:01:09;;;;;;;22.75;15.63;;;;;;;1.57;74.66;100564.70;1768623;81;21172;-44
2021/01/13 02:03:46;;;;;;;23.38;16.85;;;;;;;1.57;74.73;100563.42;1749843;81;21263;-43
2021/01/13 02:06:16;;;;;;;23.32;16.10;;;;;;;1.58;74.97;100557.46;1768656;81;21605;-44
2021/01/13 02:08:47;;;;;;;23.85;16.27;;;;;;;1.59;74.93;100556.60;1769613;81;21568;-44
2021/01/13 02:11:20;;;;;;;25.05;17.25;;;;;;;1.60;75.00;100562.19;1709843;84;22062;-44
2021/01/13 02:13:48;;;;;;;21.25;15.90;;;;;;;1.60;74.93;100557.06;1683411;85;21212;-45
2021/01/13 02:16:20;;;;;;;23.62;16.40;;;;;;;1.61;75.01;100543.38;1650372;86;21211;-45
2021/01/13 02:18:50;;;;;;;23.40;17.02;;;;;;;1.61;75.07;100527.98;1683574;85;21173;-45
2021/01/13 02:21:20;;;;;;;22.93;16.20;;;;;;;1.62;75.03;100525.88;1645375;86;21197;-45
2021/01/13 02:24:09;;;;;;;26.30;17.32;;;;;;;1.62;75.03;100522.03;1650340;87;21198;-45
2021/01/13 02:27:20;;;;;;;24.35;16.05;;;;;;;1.63;75.01;100526.30;1631496;87;21190;-44
2021/01/13 02:29:59;;;;;;;23.85;16.15;;;;;;;1.65;75.11;100532.30;1812735;79;23123;-44
2021/01/13 02:32:34;;;;;;;26.97;17.25;;;;;;;1.58;75.21;100509.16;1665834;85;21234;-44
2021/01/13 02:35:13;;;;;;;22.87;17.20;;;;;;;1.64;75.02;100510.08;1771704;79;23082;-44
2021/01/13 02:38:08;;;;;;;21.05;15.95;;;;;;;1.60;75.05;100509.61;1722654;81;21152;-45
2021/01/13 02:40:36;;;;;;;20.65;14.68;;;;;;;1.62;75.04;100514.34;1744964;81;21325;-44
2021/01/13 02:43:09;;;;;;;20.00;14.38;;;;;;;1.64;74.87;100513.93;1739280;82;21147;-45
2021/01/13 02:45:47;;;;;;;21.95;15.63;;;;;;;1.67;74.90;100504.55;1683291;84;21177;-45
2021/01/13 02:48:20;;;;;;;21.95;15.55;;;;;;;1.70;74.89;100505.84;1683623;84;21155;-46
2021/01/13 02:50:57;;;;;;;21.68;15.78;;;;;;;1.75;74.86;100506.34;1686096;84;21302;-44
2021/01/13 02:53:51;;;;;;;21.00;16.25;;;;;;;1.79;74.70;100495.69;1687750;84;21177;-44
2021/01/13 02:56:27;;;;;;;20.75;15.43;;;;;;;1.83;74.53;100494.86;1680491;84;21229;-45
2021/01/13 02:59:07;;;;;;;25.50;17.40;;;;;;;1.87;74.38;100502.61;1684343;84;21205;-46
2021/01/13 03:01:39;;;;;;;22.50;17.13;;;;;;;1.86;74.14;100493.59;1682898;84;21185;-45
2021/01/13 03:04:08;;;;;;;22.10;15.78;;;;;;;1.81;73.94;100492.30;1693816;84;21179;-45
2021/01/13 03:06:38;;;;;;;23.77;17.25;;;;;;;1.78;73.87;100505.49;1686884;84;21177;-45
2021/01/13 03:09:08;;;;;;;21.17;15.53;;;;;;;1.75;73.80;100509.33;1679506;84;21637;-45
2021/01/13 03:11:38;;;;;;;25.12;17.77;;;;;;;1.72;73.99;100511.84;1684007;84;21212;-45
2021/01/13 03:14:17;;;;;;;20.25;15.50;;;;;;;1.69;73.75;100502.86;1683099;84;21601;-46
2021/01/13 03:17:06;;;;;;;25.05;16.93;;;;;;;1.72;73.91;100522.11;1689194;84;21184;-46
2021/01/13 03:20:09;;;;;;;24.55;16.75;;;;;;;1.72;73.85;100509.28;1678627;84;21141;-45
2021/01/13 03:23:11;;;;;;;23.85;15.93;;;;;;;1.72;73.77;100514.41;1692776;84;21261;-45
2021/01/13 03:26:02;;;;;;;22.87;16.85;;;;;;;1.73;73.60;100518.71;1771768;79;23082;-45
2021/01/13 03:28:37;;;;;;;21.97;16.17;;;;;;;1.69;73.75;100522.09;1729276;81;21183;-45
2021/01/13 03:31:05;;;;;;;26.37;16.73;;;;;;;1.69;73.79;100523.38;1645038;85;21251;-45
2021/01/13 03:34:11;;;;;;;22.87;15.05;;;;;;;1.70;73.70;100517.38;1644649;87;21247;-45
2021/01/13 03:37:01;;;;;;;20.70;15.43;;;;;;;1.73;73.48;100516.14;1643179;87;21210;-45
2021/01/13 03:39:36;;;;;;;20.65;15.90;;;;;;;1.68;73.34;100535.74;1644647;87;21260;-46
2021/01/13 03:42:10;;;;;;;22.62;16.75;;;;;;;1.67;73.62;100528.91;1644767;87;21196;-46
2021/01/13 03:44:41;;;;;;;24.05;15.03;;;;;;;1.71;73.64;100530.66;1644519;87;21238;-46
2021/01/13 03:47:42;;;;;;;20.88;15.60;;;;;;;1.74;73.20;100516.56;1771719;79;22923;-45
2021/01/13 03:50:17;;;;;;;24.45;16.85;;;;;;;1.68;73.33;100515.23;1739663;82;21216;-44
2021/01/13 03:52:59;;;;;;;19.98;14.68;;;;;;;1.65;73.44;100536.15;1737797;82;21144;-45
2021/01/13 03:55:33;;;;;;;21.12;14.30;;;;;;;1.69;73.29;100540.05;1737233;82;21161;-44
2021/01/13 03:58:15;;;;;;;21.07;15.58;;;;;;;1.71;72.94;100558.87;1737573;82;21168;-45
2021/01/13 04:00:50;;;;;;;21.62;15.40;;;;;;;1.70;73.12;100554.57;1737999;81;21160;-44
2021/01/13 04:03:31;;;;;;;22.27;14.75;;;;;;;1.70;73.13;100549.44;1725800;82;21165;-45
2021/01/13 04:06:12;;;;;;;20.88;14.95;;;;;;;1.69;73.03;100554.16;1740583;82;21121;-45
2021/01/13 04:08:44;;;;;;;20.67;15.43;;;;;;;1.63;73.12;100546.81;1739882;82;21125;-45
2021/01/13 04:11:22;;;;;;;;;;;;;;;1.61;73.32;100540.81;1636474;87;21157;-43
2021/01/13 04:13:52;;;;;;;20.08;14.20;;;;;;;1.62;73.19;100546.39;1633871;87;20537;-45
2021/01/13 04:16:27;;;;;;;25.12;16.05;;;;;;;1.64;72.91;100538.30;1804208;78;21133;-44
2021/01/13 04:18:56;;;;;;;21.95;15.60;;;;;;;1.58;72.76;100545.92;1775254;80;21124;-45
2021/01/13 04:21:25;;;;;;;20.25;13.55;;;;;;;1.54;72.93;100555.70;1774161;80;21151;-44
2021/01/13 04:23:59;;;;;;;21.62;15.23;;;;;;;1.55;73.12;100565.11;1771844;80;21128;-44
2021/01/13 04:26:28;;;;;;;31.87;16.87;;;;;;;1.55;73.05;100553.98;1771853;80;21168;-46
2021/01/13 04:28:56;;;;;;;19.82;14.50;;;;;;;1.55;73.32;100533.05;1771438;80;21139;-46
2021/01/13 04:31:26;;;;;;;19.12;13.98;;;;;;;1.60;73.35;100518.59;1772243;80;21198;-45
2021/01/13 04:33:55;;;;;;;21.77;14.78;;;;;;;1.61;72.89;100512.60;1769980;80;21167;-45
2021/01/13 04:36:23;;;;;;;22.55;14.75;;;;;;;1.56;72.68;100491.20;1771219;80;21144;-44
2021/01/13 04:38:51;;;;;;;18.73;14.00;;;;;;;1.51;73.14;100480.44;1764024;80;21116;-44
2021/01/13 04:41:20;;;;;;;19.23;13.85;;;;;;;1.50;73.33;100480.02;1772133;80;21282;-46
2021/01/13 04:43:56;;;;;;;20.27;13.22;;;;;;;1.51;73.33;100492.84;1755632;80;21603;-44
2021/01/13 04:46:39;;;;;;;19.57;12.98;;;;;;;1.51;73.17;100499.25;1742004;82;21158;-44
2021/01/13 04:49:16;;;;;;;20.55;13.88;;;;;;;1.51;73.32;100491.56;1742365;82;21170;-45
2021/01/13 04:51:49;;;;;;;21.00;13.38;;;;;;;1.53;73.48;100474.48;1812022;79;23005;-45
2021/01/13 04:54:19;;;;;;;21.00;13.60;;;;;;;1.49;73.51;100477.86;1775319;80;21164;-45
2021/01/13 04:57:37;;;;;;;19.87;14.15;;;;;;;1.50;73.74;100493.70;1780228;80;21152;-45
2021/01/13 05:00:13;;;;;;;21.55;14.87;;;;;;;1.51;73.78;100503.09;1776985;80;21270;-44
2021/01/13 05:03:17;;;;;;;20.17;13.53;;;;;;;1.45;73.77;100491.91;1783818;80;21285;-44
2021/01/13 05:06:15;;;;;;;22.22;14.80;;;;;;;1.42;74.06;100481.19;1774194;80;21152;-44
2021/01/13 05:08:47;;;;;;;18.42;13.68;;;;;;;1.40;74.12;100484.61;1776413;80;21172;-45
2021/01/13 05:11:16;;;;;;;20.48;12.90;;;;;;;1.34;74.47;100477.69;1745680;80;21136;-44
2021/01/13 05:13:46;;;;;;;19.02;13.65;;;;;;;1.34;74.78;100483.27;1775985;80;21301;-44
2021/01/13 05:16:15;;;;;;;19.17;13.90;;;;;;;1.36;74.93;100489.27;1780097;80;21216;-44
2021/01/13 05:18:53;;;;;;;21.20;13.90;;;;;;;1.34;75.03;100509.73;1778915;80;21151;-44
2021/01/13 05:21:26;;;;;;;18.67;13.75;;;;;;;1.35;75.11;100518.29;1778512;80;21124;-44
2021/01/13 05:23:56;;;;;;;19.67;13.22;;;;;;;1.33;75.24;100518.70;1776429;80;21171;-44
2021/01/13 05:26:28;;;;;;;17.52;13.10;;;;;;;1.33;75.47;100516.13;1777400;80;21140;-44
2021/01/13 05:29:07;;;;;;;17.70;12.43;;;;;;;1.32;75.48;100525.96;1774496;80;21160;-44
2021/01/13 05:31:37;;;;;;;17.57;11.38;;;;;;;1.29;75.50;100519.09;1779825;80;21148;-44
2021/01/13 05:34:07;;;;;;;16.87;12.80;;;;;;;1.33;75.77;100518.28;1772735;80;21295;-44
2021/01/13 05:36:35;;;;;;;17.80;12.90;;;;;;;1.37;75.94;100526.86;1776088;80;21152;-44
2021/01/13 05:41:47;;;;;;;17.52;12.28;;;;;;;1.43;75.74;100532.92;1810107;79;23008;-45
2021/01/13 05:44:15;;;;;;;21.12;13.03;;;;;;;1.35;75.58;100549.92;1778511;80;21171;-44
2021/01/13 05:46:46;;;;;;;14.87;11.35;;;;;;;1.34;75.85;100554.59;1778768;80;21148;-45
2021/01/13 05:49:17;;;;;;;18.60;12.35;;;;;;;1.37;75.89;100549.92;1777702;80;21176;-45
2021/01/13 05:51:47;;;;;;;16.87;11.85;;;;;;;1.42;75.72;100559.38;1773201;80;21183;-45
2021/01/13 05:54:16;;;;;;;15.55;11.90;;;;;;;1.41;75.54;100546.14;1780362;80;21167;-45
2021/01/13 05:56:47;;;;;;;18.90;11.97;;;;;;;1.38;75.51;100547.38;1776303;80;21188;-45
2021/01/13 05:59:16;;;;;;;17.37;11.03;;;;;;;1.38;75.45;100557.62;1767846;80;21116;-44
2021/01/13 06:01:59;;;;;;;16.40;11.80;;;;;;;1.41;75.52;100567.06;1777849;80;21172;-45
2021/01/13 06:04:28;;;;;;;16.97;11.65;;;;;;;1.42;75.47;100576.49;1746620;80;21144;-45
2021/01/13 06:07:23;;;;;;;17.12;12.18;;;;;;;1.44;75.57;100573.08;1773261;80;21144;-45
2021/01/13 06:09:56;;;;;;;15.20;11.38;;;;;;;1.47;75.47;100570.56;1773953;80;21141;-44
2021/01/13 06:12:25;;;;;;;16.05;11.88;;;;;;;1.51;75.27;100572.73;1781675;80;21172;-44
2021/01/13 06:14:54;;;;;;;19.82;13.22;;;;;;;1.51;75.12;100572.33;1777826;80;21152;-44
2021/01/13 06:17:24;;;;;;;17.92;12.55;;;;;;;1.52;75.15;100575.76;1779247;80;21148;-45
2021/01/13 06:19:54;;;;;;;17.55;12.07;;;;;;;1.53;75.08;100573.20;1775514;80;21224;-45
2021/01/13 06:22:33;;;;;;;18.32;11.33;;;;;;;1.57;75.00;100562.55;1781083;80;21148;-43
2021/01/13 06:25:05;;;;;;;17.95;12.50;;;;;;;1.61;75.00;100569.02;1780043;80;21148;-44
2021/01/13 06:28:18;;;;;;;16.55;11.00;;;;;;;1.60;74.60;100558.75;1772053;80;21160;-44
2021/01/13 06:30:46;;;;;;;18.23;11.73;;;;;;;1.57;74.57;100563.83;1782803;80;21285;-45
2021/01/13 06:33:24;;;;;;;17.77;12.05;;;;;;;1.53;74.39;100574.48;1715037;80;21588;-45
2021/01/13 06:36:15;;;;;;;18.00;12.98;;;;;;;1.52;74.59;100574.06;1775546;80;21164;-45
2021/01/13 06:38:59;;;;;;;18.52;12.03;;;;;;;1.53;74.56;100562.95;1783880;80;21152;-45
2021/01/13 06:41:28;;;;;;;16.60;11.20;;;;;;;1.52;74.62;100563.80;1770153;80;21193;-45
2021/01/13 06:44:05;;;;;;;18.05;11.80;;;;;;;1.53;74.53;100565.52;1759809;81;21124;-45
2021/01/13 06:46:35;;;;;;;17.45;13.03;;;;;;;1.54;74.64;100560.84;1763362;81;21160;-45
2021/01/13 06:49:21;;;;;;;19.75;12.28;;;;;;;1.56;74.85;100556.59;1760348;81;21294;-45
2021/01/13 06:51:51;;;;;;;14.75;9.90;;;;;;;1.61;74.91;100553.63;1759756;81;21159;-44
2021/01/13 06:54:21;;;;;;;14.53;11.03;;;;;;;1.65;74.70;100555.38;1767590;80;21138;-45
2021/01/13 06:56:57;;;;;;;17.75;11.63;;;;;;;1.68;74.69;100558.83;1761354;80;21161;-44
2021/01/13 06:59:28;;;;;;;20.23;12.98;;;;;;;1.70;74.63;100562.27;1763228;81;21149;-44
2021/01/13 07:01:58;;;;;;;15.18;10.55;;;;;;;1.72;74.55;100568.27;1773967;81;21156;-44
2021/01/13 07:04:28;;;;;;;17.55;11.68;;;;;;;1.77;74.30;100570.48;1769904;81;21601;-44
2021/01/13 07:07:06;;;;;;;16.25;11.90;;;;;;;1.76;74.35;100575.16;1762508;80;21156;-44
2021/01/13 07:09:45;;;;;;;13.13;10.28;;;;;;;1.76;74.46;100572.59;1721761;82;21162;-44
2021/01/13 07:12:25;;;;;;;16.42;11.33;;;;;;;1.79;74.44;100566.23;1721790;82;21147;-44
2021/01/13 07:14:58;;;;;;;17.70;10.70;;;;;;;1.83;74.26;100562.84;1722534;82;21346;-44
2021/01/13 07:17:29;;;;;;;17.48;11.40;;;;;;;1.82;74.14;100563.26;1734845;82;21178;-44
2021/01/13 07:19:58;;;;;;;16.77;11.60;;;;;;;1.78;74.13;100554.23;1734515;82;21135;-45
2021/01/13 07:22:27;;;;;;;16.05;11.45;;;;;;;1.75;74.14;100554.22;1735943;82;21143;-44
2021/01/13 07:24:56;;;;;;;18.35;10.98;;;;;;;1.76;74.23;100554.64;1737008;82;21602;-44
2021/01/13 07:27:24;;;;;;;16.30;11.95;;;;;;;1.80;74.28;100555.10;1733016;82;21142;-45
2021/01/13 07:29:52;;;;;;;15.72;11.60;;;;;;;1.83;74.06;100561.56;1734594;82;21568;-44
2021/01/13 07:32:25;;;;;;;15.48;9.98;;;;;;;1.83;74.05;100568.84;1734791;82;21146;-44
2021/01/13 07:35:05;;;;;;;14.00;11.33;;;;;;;1.88;73.78;100572.72;1771617;79;22972;-44
2021/01/13 07:40:34;;;;;;;13.90;10.23;;;;;;;1.89;73.68;100568.03;1810983;78;23118;-44
2021/01/13 07:43:09;;;;;;;16.27;10.45;;;;;;;1.86;73.48;100570.55;1783604;80;21133;-44
2021/01/13 07:45:46;;;;;;;15.80;11.28;;;;;;;1.88;73.41;100573.58;1693444;83;21335;-44
2021/01/13 07:48:35;;;;;;;15.88;11.55;;;;;;;1.92;73.33;100574.47;1693436;84;21177;-44
2021/01/13 07:51:09;;;;;;;14.35;11.33;;;;;;;1.92;73.21;100586.02;1695190;83;21186;-44
2021/01/13 07:53:38;;;;;;;13.10;10.05;;;;;;;1.93;73.05;100581.33;1693572;83;21181;-46
2021/01/13 07:56:10;;;;;;;18.80;12.50;;;;;;;1.95;73.07;100578.36;1695026;84;21264;-44
2021/01/13 07:58:37;;;;;;;15.03;11.63;;;;;;;2.00;73.15;100585.70;1696757;83;21333;-44
2021/01/13 08:01:23;;;;;;;15.50;11.78;;;;;;;2.01;72.89;100579.70;1665125;84;21213;-46
2021/01/13 08:04:36;;;;;;;16.80;11.18;;;;;;;2.03;72.85;100585.71;1695884;83;21183;-44
2021/01/13 08:07:17;;;;;;;14.50;10.28;;;;;;;2.08;72.82;100581.50;1687540;84;21201;-45
2021/01/13 08:09:51;;;;;;;17.95;12.10;;;;;;;2.11;72.54;100586.64;1672728;84;21146;-45
2021/01/13 08:12:56;;;;;;;17.95;12.18;;;;;;;2.15;72.42;100590.95;1810397;79;23259;-45
2021/01/13 08:16:03;;;;;;;15.60;10.60;;;;;;;2.11;72.66;100595.63;1749682;81;21151;-45
2021/01/13 08:19:10;;;;;;;15.25;11.83;;;;;;;2.16;72.47;100608.09;1746522;81;21193;-44
2021/01/13 08:24:25;;;;;;;15.28;11.97;;;;;;;2.17;72.50;100611.08;1742964;81;21307;-45
2021/01/13 08:26:50;;;;;;;13.43;10.28;;;;;;;2.21;72.41;100619.25;1742960;81;21178;-44
2021/01/13 08:29:20;;;;;;;17.82;12.75;;;;;;;2.23;72.12;100614.98;1746469;81;21198;-44
2021/01/13 08:32:07;;;;;;;15.43;12.07;;;;;;;2.23;72.15;100613.29;1749104;81;21562;-44
2021/01/13 08:34:49;;;;;;;17.90;13.03;;;;;;;2.25;72.24;100609.45;1742732;81;21111;-43
2021/01/13 08:37:17;;;;;;;16.57;11.78;;;;;;;2.25;71.95;100606.47;1756600;81;21115;-43
2021/01/13 08:39:46;;;;;;;15.90;11.88;;;;;;;2.26;71.78;100612.47;1743124;81;21126;-44
2021/01/13 08:42:24;;;;;;;16.70;12.53;;;;;;;2.23;71.83;100612.42;1747833;81;21166;-43
2021/01/13 08:44:54;;;;;;;15.28;11.83;;;;;;;2.23;72.00;100604.72;1748943;81;21606;-43
2021/01/13 08:47:24;;;;;;;15.85;12.23;;;;;;;2.28;71.89;100603.07;1747209;81;21250;-44
2021/01/13 08:49:54;;;;;;;16.02;11.43;;;;;;;2.30;71.64;100594.55;1748715;81;21194;-43
2021/01/13 08:52:24;;;;;;;13.20;10.93;;;;;;;2.33;71.40;100591.12;1745104;81;21205;-44
2021/01/13 08:55:01;;;;;;;14.93;11.18;;;;;;;2.35;71.21;100590.70;1755486;81;21127;-43
2021/01/13 08:57:51;;;;;;;18.00;13.22;;;;;;;2.34;71.23;100589.00;1748747;81;21193;-43
2021/01/13 09:00:19;;;;;;;16.20;12.13;;;;;;;2.33;71.22;100583.41;1744961;81;21150;-43
2021/01/13 09:03:13;;;;;;;15.00;11.25;;;;;;;2.35;71.05;100581.72;1743904;81;21210;-44
2021/01/13 09:05:42;;;;;;;17.48;12.55;;;;;;;2.39;71.08;100588.63;1746461;81;21150;-45
2021/01/13 09:08:13;;;;;;;18.55;13.05;;;;;;;2.45;71.08;100586.11;1743085;81;21182;-45
2021/01/13 09:10:54;;;;;;;17.30;13.38;;;;;;;2.46;70.93;100582.69;1757724;80;21585;-44
2021/01/13 09:13:38;;;;;;;17.40;13.18;;;;;;;2.43;70.76;100585.24;1765539;81;21585;-45
2021/01/13 09:16:29;;;;;;;15.85;11.57;;;;;;;2.42;70.70;100580.94;1765976;81;21568;-45
2021/01/13 09:19:00;;;;;;;17.92;11.65;;;;;;;2.43;70.62;100585.24;1767276;81;21143;-43
2021/01/13 09:21:35;;;;;;;16.07;12.73;;;;;;;2.43;70.67;100580.11;1766996;81;21152;-43
2021/01/13 09:24:05;;;;;;;20.80;13.55;;;;;;;2.39;70.87;100578.36;1731228;82;21146;-43
2021/01/13 09:26:36;;;;;;;16.00;10.93;;;;;;;2.42;70.76;100578.37;1737584;82;21225;-43
2021/01/13 09:29:08;;;;;;;16.15;11.80;;;;;;;2.42;70.49;100577.09;1741787;82;21120;-43
2021/01/13 09:31:43;;;;;;;16.30;12.03;;;;;;;2.45;70.34;100575.84;1771637;79;22271;-44
2021/01/13 09:34:12;;;;;;;18.02;13.30;;;;;;;2.40;70.39;100567.23;1728757;82;21156;-45
2021/01/13 09:36:59;;;;;;;17.35;13.25;;;;;;;2.43;70.36;100569.83;1729056;82;21120;-44
2021/01/13 09:39:38;;;;;;;18.55;12.58;;;;;;;2.46;70.11;100563.42;1737824;82;21121;-44
2021/01/13 09:42:07;;;;;;;14.78;11.97;;;;;;;2.49;70.06;100567.31;1656120;84;21234;-44
2021/01/13 09:44:37;;;;;;;17.67;13.28;;;;;;;2.49;69.94;100567.31;1651540;86;21204;-44
2021/01/13 09:47:25;;;;;;;18.25;13.13;;;;;;;2.51;69.94;100564.75;1657512;86;21320;-44
2021/01/13 09:49:59;;;;;;;17.42;11.53;;;;;;;2.53;69.92;100566.48;1771555;79;23068;-44
2021/01/13 09:52:42;;;;;;;16.48;12.78;;;;;;;2.51;69.82;100573.32;1736309;82;21172;-45
2021/01/13 09:55:12;;;;;;;14.87;11.70;;;;;;;2.54;69.78;100573.33;1740803;82;21521;-45
2021/01/13 09:57:41;;;;;;;17.37;13.05;;;;;;;2.56;69.74;100574.20;1737818;82;21176;-45
2021/01/13 10:00:12;;;;;;;15.48;11.78;;;;;;;2.59;69.67;100569.10;1736785;82;21160;-45
2021/01/13 10:02:45;;;;;;;15.13;10.85;;;;;;;2.60;69.60;100564.38;1733743;82;21321;-45
2021/01/13 10:05:14;;;;;;;16.37;12.00;;;;;;;2.65;69.54;100566.98;1732095;82;21160;-45
2021/01/13 10:07:44;;;;;;;18.15;12.07;;;;;;;2.67;69.50;100566.57;1737561;82;21581;-45
2021/01/13 10:10:15;;;;;;;14.55;10.93;;;;;;;2.71;69.56;100566.61;1740480;82;21176;-45
2021/01/13 10:12:49;;;;;;;18.60;12.33;;;;;;;2.74;69.42;100564.05;1731356;82;21180;-44
2021/01/13 10:15:17;;;;;;;18.52;12.58;;;;;;;2.73;69.35;100561.06;1738849;82;21608;-45
2021/01/13 10:17:46;;;;;;;14.25;11.68;;;;;;;2.76;69.56;100564.91;1735022;82;21152;-45
2021/01/13 10:20:21;;;;;;;17.52;12.37;;;;;;;2.79;69.22;100556.38;1736130;82;21169;-45
2021/01/13 10:22:50;;;;;;;16.80;13.43;;;;;;;2.79;69.10;100554.67;1734637;80;21160;-44
2021/01/13 10:25:30;;;;;;;15.58;12.00;;;;;;;2.81;68.98;100545.27;1739574;82;21145;-44
2021/01/13 10:28:01;;;;;;;15.75;12.30;;;;;;;2.85;68.87;100543.56;1737157;82;21593;-46
2021/01/13 10:30:30;;;;;;;14.25;10.98;;;;;;;2.87;68.61;100532.45;1738603;82;21120;-46
2021/01/13 10:33:00;;;;;;;14.83;11.38;;;;;;;2.89;68.50;100535.89;1740195;82;21649;-46
2021/01/13 10:35:37;;;;;;;16.73;11.65;;;;;;;2.93;68.49;100536.75;1744670;82;21149;-47
2021/01/13 10:38:06;;;;;;;16.42;11.10;;;;;;;2.98;68.08;100541.09;1686671;84;21225;-45
2021/01/13 10:40:34;;;;;;;15.43;11.03;;;;;;;3.04;68.05;100537.27;1694690;84;21194;-45
2021/01/13 10:43:02;;;;;;;16.77;11.48;;;;;;;3.09;67.90;100536.84;1696087;84;21695;-45
2021/01/13 10:45:32;;;;;;;16.07;12.78;;;;;;;3.10;67.84;100520.59;1695300;84;21343;-45
2021/01/13 10:48:02;;;;;;;15.43;12.35;;;;;;;3.13;67.83;100514.61;1691864;83;21222;-46
2021/01/13 10:50:32;;;;;;;15.35;11.85;;;;;;;3.15;67.61;100518.87;1692132;83;21223;-46
2021/01/13 10:53:01;;;;;;;13.15;11.68;;;;;;;3.19;67.27;100509.03;1689760;84;21749;-45
2021/01/13 10:58:06;;;;;;;16.55;12.00;;;;;;;3.24;67.25;100498.36;1810669;78;23138;-45
2021/01/13 11:00:35;;;;;;;17.37;11.97;;;;;;;3.23;67.24;100499.23;1725576;83;21556;-45
2021/01/13 11:03:05;;;;;;;16.25;11.60;;;;;;;3.28;67.21;100501.79;1723908;83;21147;-46
2021/01/13 11:05:36;;;;;;;14.68;11.65;;;;;;;3.32;67.09;100502.68;1723336;83;21121;-45
2021/01/13 11:08:05;;;;;;;13.95;10.48;;;;;;;3.38;66.98;100498.39;1725638;83;21616;-46
2021/01/13 11:10:34;;;;;;;15.48;11.75;;;;;;;3.41;66.88;100489.83;1723315;83;21163;-46
2021/01/13 11:15:42;;;;;;;14.20;11.30;;;;;;;3.47;66.51;100485.98;1805024;79;22994;-45
2021/01/13 11:18:12;;;;;;;16.75;12.13;;;;;;;3.41;66.55;100489.83;1783470;80;21176;-45
2021/01/13 11:20:40;;;;;;;15.63;11.85;;;;;;;3.35;66.72;100489.40;1764551;80;21108;-45
2021/01/13 11:23:10;;;;;;;15.23;11.85;;;;;;;3.35;66.66;100482.10;1782735;80;21176;-45
2021/01/13 11:25:39;;;;;;;14.35;11.30;;;;;;;3.39;66.47;100480.84;1780318;80;21148;-45
2021/01/13 11:28:13;;;;;;;14.78;11.73;;;;;;;3.45;66.30;100481.27;1785815;80;21286;-45
2021/01/13 11:30:44;;;;;;;13.88;10.78;;;;;;;3.46;66.32;100476.16;1777603;80;21152;-44
2021/01/13 11:33:15;;;;;;;14.98;11.73;;;;;;;3.47;66.25;100470.56;1763354;80;21604;-45
2021/01/13 11:35:53;;;;;;;14.10;10.98;;;;;;;3.45;66.34;100463.27;1783412;80;21113;-45
2021/01/13 11:38:35;;;;;;;14.10;11.03;;;;;;;3.48;66.42;100462.00;1788232;80;21144;-45
2021/01/13 11:42:00;;;;;;;16.12;11.03;;;;;;;3.50;66.25;100470.16;1780670;80;21152;-45
2021/01/13 11:44:40;;;;;;;17.32;12.40;;;;;;;3.50;65.99;100469.30;1788544;80;21275;-45
2021/01/13 11:47:25;;;;;;;13.55;9.90;;;;;;;3.41;66.09;100474.41;1756025;81;21675;-44
2021/01/13 11:50:05;;;;;;;14.63;12.13;;;;;;;3.46;66.11;100483.00;1810152;79;22755;-45
2021/01/13 11:52:34;;;;;;;13.60;10.88;;;;;;;3.44;66.29;100492.43;1768092;80;21266;-44
2021/01/13 11:55:03;;;;;;;13.93;10.48;;;;;;;3.47;66.21;100485.57;1776087;80;21156;-44
2021/01/13 11:57:35;;;;;;;14.50;10.20;;;;;;;3.43;66.11;100480.41;1777851;80;21144;-44
2021/01/13 12:00:20;;;;;;;;;;;;;;;3.44;65.87;100489.86;1776726;80;21144;-44
2021/01/13 12:02:58;;;;;;;13.93;10.75;;;;;;;3.44;65.72;100490.72;1771024;80;20188;-45
2021/01/13 12:05:34;;;;;;;13.55;10.63;;;;;;;3.45;65.80;100491.56;1707787;83;21206;-44